sensor_id;sensor_type;location;lat;lon;timestamp;P1;durP1;ratioP1;P2;durP2;ratioP2
74259;SDS011;62630;55.874;37.516;2023-04-16T00:00:02;5.40;;;3.03;;
74259;SDS011;62630;55.874;37.516;2023-04-16T00:02:29;6.03;;;2.80;;
74259;SDS011;62630;55.874;37.516;2023-04-16T00:04:54;9.35;;;3.38;;
74259;SDS011;62630;55.874;37.516;2023-04-16T00:07:20;7.40;;;2.78;;
74259;SDS011;62630;55.874;37.516;2023-04-16T00:09:45;11.32;;;3.08;;
74259;SDS011;62630;55.874;37.516;2023-04-16T00:12:11;5.75;;;2.72;;
74259;SDS011;62630;55.874;37.516;2023-04-16T00:14:36;9.10;;;3.00;;
74259;SDS011;62630;55.874;37.516;2023-04-16T00:17:02;13.15;;;2.63;;
74259;SDS011;62630;55.874;37.516;2023-04-16T00:19:27;11.93;;;4.25;;
74259;SDS011;62630;55.874;37.516;2023-04-16T00:21:53;8.18;;;3.30;;
74259;SDS011;62630;55.874;37.516;2023-04-16T00:24:18;8.02;;;2.85;;
74259;SDS011;62630;55.874;37.516;2023-04-16T00:26:44;10.40;;;3.28;;
74259;SDS011;62630;55.874;37.516;2023-04-16T00:29:10;12.77;;;3.10;;
74259;SDS011;62630;55.874;37.516;2023-04-16T00:31:36;5.78;;;2.42;;
74259;SDS011;62630;55.874;37.516;2023-04-16T00:34:02;8.70;;;3.25;;
74259;SDS011;62630;55.874;37.516;2023-04-16T00:36:27;8.52;;;3.17;;
74259;SDS011;62630;55.874;37.516;2023-04-16T00:38:53;7.40;;;3.10;;
74259;SDS011;62630;55.874;37.516;2023-04-16T00:41:20;5.78;;;2.97;;
74259;SDS011;62630;55.874;37.516;2023-04-16T00:43:47;5.82;;;2.90;;
74259;SDS011;62630;55.874;37.516;2023-04-16T00:46:12;11.65;;;3.22;;
74259;SDS011;62630;55.874;37.516;2023-04-16T00:51:07;9.07;;;4.35;;
74259;SDS011;62630;55.874;37.516;2023-04-16T00:53:33;8.63;;;3.28;;
74259;SDS011;62630;55.874;37.516;2023-04-16T00:56:03;7.10;;;3.17;;
74259;SDS011;62630;55.874;37.516;2023-04-16T00:58:30;8.15;;;3.08;;
74259;SDS011;62630;55.874;37.516;2023-04-16T01:00:57;11.77;;;3.28;;
74259;SDS011;62630;55.874;37.516;2023-04-16T01:03:23;14.02;;;4.07;;
74259;SDS011;62630;55.874;37.516;2023-04-16T01:05:54;9.00;;;3.63;;
74259;SDS011;62630;55.874;37.516;2023-04-16T01:08:20;9.35;;;3.08;;
74259;SDS011;62630;55.874;37.516;2023-04-16T01:10:46;6.93;;;3.50;;
74259;SDS011;62630;55.874;37.516;2023-04-16T01:13:12;13.38;;;3.33;;
74259;SDS011;62630;55.874;37.516;2023-04-16T01:15:38;9.07;;;3.55;;
74259;SDS011;62630;55.874;37.516;2023-04-16T01:18:17;7.82;;;3.17;;
74259;SDS011;62630;55.874;37.516;2023-04-16T01:20:44;10.77;;;3.75;;
74259;SDS011;62630;55.874;37.516;2023-04-16T01:23:10;8.95;;;3.40;;
74259;SDS011;62630;55.874;37.516;2023-04-16T01:25:36;10.07;;;3.55;;
74259;SDS011;62630;55.874;37.516;2023-04-16T01:28:01;7.97;;;3.65;;
74259;SDS011;62630;55.874;37.516;2023-04-16T01:30:27;6.43;;;3.50;;
74259;SDS011;62630;55.874;37.516;2023-04-16T01:32:52;6.45;;;3.22;;
74259;SDS011;62630;55.874;37.516;2023-04-16T01:35:18;11.45;;;3.92;;
74259;SDS011;62630;55.874;37.516;2023-04-16T01:37:43;10.23;;;3.63;;
74259;SDS011;62630;55.874;37.516;2023-04-16T01:40:09;7.18;;;3.90;;
74259;SDS011;62630;55.874;37.516;2023-04-16T01:42:36;11.43;;;4.20;;
74259;SDS011;62630;55.874;37.516;2023-04-16T01:45:02;13.45;;;4.18;;
74259;SDS011;62630;55.874;37.516;2023-04-16T01:47:27;9.13;;;4.15;;
74259;SDS011;62630;55.874;37.516;2023-04-16T01:49:53;6.30;;;3.90;;
74259;SDS011;62630;55.874;37.516;2023-04-16T01:52:18;10.07;;;4.43;;
74259;SDS011;62630;55.874;37.516;2023-04-16T01:54:45;11.60;;;4.13;;
74259;SDS011;62630;55.874;37.516;2023-04-16T01:57:10;12.23;;;3.90;;
74259;SDS011;62630;55.874;37.516;2023-04-16T01:59:36;11.88;;;4.18;;
74259;SDS011;62630;55.874;37.516;2023-04-16T02:02:06;9.65;;;3.78;;
74259;SDS011;62630;55.874;37.516;2023-04-16T02:04:37;11.80;;;4.45;;
74259;SDS011;62630;55.874;37.516;2023-04-16T02:07:04;9.77;;;4.20;;
74259;SDS011;62630;55.874;37.516;2023-04-16T02:09:30;7.47;;;4.05;;
74259;SDS011;62630;55.874;37.516;2023-04-16T02:11:56;13.05;;;3.97;;
74259;SDS011;62630;55.874;37.516;2023-04-16T02:14:21;7.43;;;3.50;;
74259;SDS011;62630;55.874;37.516;2023-04-16T02:16:49;7.82;;;3.78;;
74259;SDS011;62630;55.874;37.516;2023-04-16T02:19:15;11.90;;;3.97;;
74259;SDS011;62630;55.874;37.516;2023-04-16T02:21:47;8.00;;;3.55;;
74259;SDS011;62630;55.874;37.516;2023-04-16T02:24:13;17.33;;;4.35;;
74259;SDS011;62630;55.874;37.516;2023-04-16T02:26:39;8.93;;;4.22;;
74259;SDS011;62630;55.874;37.516;2023-04-16T02:29:05;8.88;;;4.18;;
74259;SDS011;62630;55.874;37.516;2023-04-16T02:31:30;11.02;;;3.17;;
74259;SDS011;62630;55.874;37.516;2023-04-16T02:33:56;9.60;;;4.32;;
74259;SDS011;62630;55.874;37.516;2023-04-16T02:36:22;12.75;;;4.50;;
74259;SDS011;62630;55.874;37.516;2023-04-16T02:38:48;7.65;;;3.75;;
74259;SDS011;62630;55.874;37.516;2023-04-16T02:41:13;8.27;;;4.45;;
74259;SDS011;62630;55.874;37.516;2023-04-16T02:43:39;9.45;;;4.25;;
74259;SDS011;62630;55.874;37.516;2023-04-16T02:46:05;10.07;;;4.22;;
74259;SDS011;62630;55.874;37.516;2023-04-16T02:48:30;9.82;;;4.18;;
74259;SDS011;62630;55.874;37.516;2023-04-16T02:50:56;9.57;;;4.15;;
74259;SDS011;62630;55.874;37.516;2023-04-16T02:53:22;8.20;;;4.15;;
74259;SDS011;62630;55.874;37.516;2023-04-16T02:55:54;9.63;;;3.88;;
74259;SDS011;62630;55.874;37.516;2023-04-16T02:58:20;14.07;;;4.22;;
74259;SDS011;62630;55.874;37.516;2023-04-16T03:00:47;11.40;;;4.72;;
74259;SDS011;62630;55.874;37.516;2023-04-16T03:03:13;9.45;;;4.20;;
74259;SDS011;62630;55.874;37.516;2023-04-16T03:05:39;11.00;;;4.03;;
74259;SDS011;62630;55.874;37.516;2023-04-16T03:08:05;10.27;;;3.97;;
74259;SDS011;62630;55.874;37.516;2023-04-16T03:10:30;12.15;;;3.63;;
74259;SDS011;62630;55.874;37.516;2023-04-16T03:12:56;8.30;;;3.40;;
74259;SDS011;62630;55.874;37.516;2023-04-16T03:15:22;10.60;;;4.35;;
74259;SDS011;62630;55.874;37.516;2023-04-16T03:17:48;9.48;;;3.78;;
74259;SDS011;62630;55.874;37.516;2023-04-16T03:20:13;8.52;;;3.45;;
74259;SDS011;62630;55.874;37.516;2023-04-16T03:22:41;10.77;;;4.10;;
74259;SDS011;62630;55.874;37.516;2023-04-16T03:25:07;14.85;;;4.55;;
74259;SDS011;62630;55.874;37.516;2023-04-16T03:27:33;14.27;;;3.80;;
74259;SDS011;62630;55.874;37.516;2023-04-16T03:29:59;16.02;;;5.30;;
74259;SDS011;62630;55.874;37.516;2023-04-16T03:32:25;7.53;;;5.32;;
74259;SDS011;62630;55.874;37.516;2023-04-16T03:34:51;13.40;;;4.00;;
74259;SDS011;62630;55.874;37.516;2023-04-16T03:37:16;9.73;;;3.67;;
74259;SDS011;62630;55.874;37.516;2023-04-16T03:39:42;7.93;;;3.80;;
74259;SDS011;62630;55.874;37.516;2023-04-16T03:42:08;9.80;;;3.80;;
74259;SDS011;62630;55.874;37.516;2023-04-16T03:44:33;7.90;;;3.88;;
74259;SDS011;62630;55.874;37.516;2023-04-16T03:46:59;9.40;;;4.15;;
74259;SDS011;62630;55.874;37.516;2023-04-16T03:49:24;7.32;;;3.20;;
74259;SDS011;62630;55.874;37.516;2023-04-16T03:51:50;8.15;;;4.22;;
74259;SDS011;62630;55.874;37.516;2023-04-16T03:54:15;9.80;;;3.63;;
74259;SDS011;62630;55.874;37.516;2023-04-16T03:56:41;8.18;;;3.90;;
74259;SDS011;62630;55.874;37.516;2023-04-16T03:59:07;9.98;;;3.25;;
74259;SDS011;62630;55.874;37.516;2023-04-16T04:01:33;9.85;;;3.67;;
74259;SDS011;62630;55.874;37.516;2023-04-16T04:03:59;8.88;;;3.45;;
74259;SDS011;62630;55.874;37.516;2023-04-16T04:06:24;5.60;;;3.35;;
74259;SDS011;62630;55.874;37.516;2023-04-16T04:08:50;10.07;;;3.35;;
74259;SDS011;62630;55.874;37.516;2023-04-16T04:11:15;9.13;;;3.80;;
74259;SDS011;62630;55.874;37.516;2023-04-16T04:13:41;6.70;;;3.60;;
74259;SDS011;62630;55.874;37.516;2023-04-16T04:16:06;8.95;;;3.92;;
74259;SDS011;62630;55.874;37.516;2023-04-16T04:18:32;6.32;;;3.15;;
74259;SDS011;62630;55.874;37.516;2023-04-16T04:20:58;9.02;;;3.05;;
74259;SDS011;62630;55.874;37.516;2023-04-16T04:23:23;8.30;;;3.42;;
74259;SDS011;62630;55.874;37.516;2023-04-16T04:25:49;7.20;;;3.35;;
74259;SDS011;62630;55.874;37.516;2023-04-16T04:28:14;8.98;;;3.40;;
74259;SDS011;62630;55.874;37.516;2023-04-16T04:30:40;6.13;;;2.92;;
74259;SDS011;62630;55.874;37.516;2023-04-16T04:33:06;8.45;;;3.70;;
74259;SDS011;62630;55.874;37.516;2023-04-16T04:35:31;11.15;;;3.92;;
74259;SDS011;62630;55.874;37.516;2023-04-16T04:37:57;8.85;;;3.85;;
74259;SDS011;62630;55.874;37.516;2023-04-16T04:40:23;8.23;;;3.53;;
74259;SDS011;62630;55.874;37.516;2023-04-16T04:42:48;6.45;;;3.53;;
74259;SDS011;62630;55.874;37.516;2023-04-16T04:45:14;21.38;;;5.40;;
74259;SDS011;62630;55.874;37.516;2023-04-16T04:47:40;11.05;;;4.10;;
74259;SDS011;62630;55.874;37.516;2023-04-16T04:50:06;10.63;;;3.88;;
74259;SDS011;62630;55.874;37.516;2023-04-16T04:52:31;13.43;;;3.90;;
74259;SDS011;62630;55.874;37.516;2023-04-16T04:54:57;10.05;;;4.13;;
74259;SDS011;62630;55.874;37.516;2023-04-16T04:57:22;14.48;;;4.15;;
74259;SDS011;62630;55.874;37.516;2023-04-16T04:59:48;7.43;;;3.40;;
74259;SDS011;62630;55.874;37.516;2023-04-16T05:02:14;10.68;;;3.72;;
74259;SDS011;62630;55.874;37.516;2023-04-16T05:04:39;9.50;;;3.40;;
74259;SDS011;62630;55.874;37.516;2023-04-16T05:07:05;17.55;;;4.38;;
74259;SDS011;62630;55.874;37.516;2023-04-16T05:09:31;15.52;;;3.95;;
74259;SDS011;62630;55.874;37.516;2023-04-16T05:11:56;8.20;;;3.90;;
74259;SDS011;62630;55.874;37.516;2023-04-16T05:14:22;14.20;;;4.53;;
74259;SDS011;62630;55.874;37.516;2023-04-16T05:16:47;11.35;;;4.28;;
74259;SDS011;62630;55.874;37.516;2023-04-16T05:19:13;12.00;;;3.92;;
74259;SDS011;62630;55.874;37.516;2023-04-16T05:21:38;7.93;;;3.42;;
74259;SDS011;62630;55.874;37.516;2023-04-16T05:24:05;14.05;;;4.13;;
74259;SDS011;62630;55.874;37.516;2023-04-16T05:26:31;11.13;;;3.30;;
74259;SDS011;62630;55.874;37.516;2023-04-16T05:28:56;13.00;;;4.28;;
74259;SDS011;62630;55.874;37.516;2023-04-16T05:31:22;15.80;;;3.85;;
74259;SDS011;62630;55.874;37.516;2023-04-16T05:33:47;9.60;;;3.85;;
74259;SDS011;62630;55.874;37.516;2023-04-16T05:36:13;11.70;;;3.33;;
74259;SDS011;62630;55.874;37.516;2023-04-16T05:38:38;8.90;;;3.83;;
74259;SDS011;62630;55.874;37.516;2023-04-16T05:41:04;9.98;;;4.20;;
74259;SDS011;62630;55.874;37.516;2023-04-16T05:43:29;13.48;;;3.83;;
74259;SDS011;62630;55.874;37.516;2023-04-16T05:45:55;14.90;;;3.97;;
74259;SDS011;62630;55.874;37.516;2023-04-16T05:48:20;14.02;;;3.60;;
74259;SDS011;62630;55.874;37.516;2023-04-16T05:50:46;9.00;;;3.67;;
74259;SDS011;62630;55.874;37.516;2023-04-16T05:53:11;8.15;;;3.38;;
74259;SDS011;62630;55.874;37.516;2023-04-16T05:55:38;9.00;;;3.60;;
74259;SDS011;62630;55.874;37.516;2023-04-16T05:58:03;8.10;;;2.70;;
74259;SDS011;62630;55.874;37.516;2023-04-16T06:00:29;8.27;;;2.83;;
74259;SDS011;62630;55.874;37.516;2023-04-16T06:02:56;17.85;;;3.00;;
74259;SDS011;62630;55.874;37.516;2023-04-16T06:05:21;8.45;;;3.40;;
74259;SDS011;62630;55.874;37.516;2023-04-16T06:07:48;7.72;;;3.00;;
74259;SDS011;62630;55.874;37.516;2023-04-16T06:10:13;9.27;;;3.60;;
74259;SDS011;62630;55.874;37.516;2023-04-16T06:12:39;5.97;;;2.58;;
74259;SDS011;62630;55.874;37.516;2023-04-16T06:15:05;7.85;;;3.53;;
74259;SDS011;62630;55.874;37.516;2023-04-16T06:17:31;5.55;;;3.58;;
74259;SDS011;62630;55.874;37.516;2023-04-16T06:19:56;10.40;;;3.17;;
74259;SDS011;62630;55.874;37.516;2023-04-16T06:22:22;8.75;;;3.10;;
74259;SDS011;62630;55.874;37.516;2023-04-16T06:24:48;9.68;;;3.13;;
74259;SDS011;62630;55.874;37.516;2023-04-16T06:27:13;11.13;;;2.80;;
74259;SDS011;62630;55.874;37.516;2023-04-16T06:29:39;14.68;;;3.60;;
74259;SDS011;62630;55.874;37.516;2023-04-16T06:32:05;9.63;;;2.78;;
74259;SDS011;62630;55.874;37.516;2023-04-16T06:34:31;7.40;;;2.65;;
74259;SDS011;62630;55.874;37.516;2023-04-16T06:36:57;8.52;;;3.20;;
74259;SDS011;62630;55.874;37.516;2023-04-16T06:39:22;5.72;;;2.83;;
74259;SDS011;62630;55.874;37.516;2023-04-16T06:41:48;18.27;;;3.65;;
74259;SDS011;62630;55.874;37.516;2023-04-16T06:44:13;5.53;;;3.00;;
74259;SDS011;62630;55.874;37.516;2023-04-16T06:46:39;7.68;;;3.08;;
74259;SDS011;62630;55.874;37.516;2023-04-16T06:49:05;6.97;;;3.25;;
74259;SDS011;62630;55.874;37.516;2023-04-16T06:51:31;12.65;;;3.35;;
74259;SDS011;62630;55.874;37.516;2023-04-16T06:53:57;8.57;;;2.63;;
74259;SDS011;62630;55.874;37.516;2023-04-16T06:56:22;10.13;;;3.30;;
74259;SDS011;62630;55.874;37.516;2023-04-16T06:58:48;9.73;;;3.40;;
74259;SDS011;62630;55.874;37.516;2023-04-16T07:01:14;10.98;;;3.40;;
74259;SDS011;62630;55.874;37.516;2023-04-16T07:03:40;5.03;;;3.47;;
74259;SDS011;62630;55.874;37.516;2023-04-16T07:06:06;6.63;;;3.17;;
74259;SDS011;62630;55.874;37.516;2023-04-16T07:08:32;7.72;;;3.03;;
74259;SDS011;62630;55.874;37.516;2023-04-16T07:11:00;8.75;;;2.83;;
74259;SDS011;62630;55.874;37.516;2023-04-16T07:13:26;8.85;;;2.60;;
74259;SDS011;62630;55.874;37.516;2023-04-16T07:15:51;8.18;;;2.90;;
74259;SDS011;62630;55.874;37.516;2023-04-16T07:18:17;7.50;;;2.60;;
74259;SDS011;62630;55.874;37.516;2023-04-16T07:20:43;7.22;;;2.70;;
74259;SDS011;62630;55.874;37.516;2023-04-16T07:23:08;7.78;;;2.95;;
74259;SDS011;62630;55.874;37.516;2023-04-16T07:25:34;5.45;;;2.80;;
74259;SDS011;62630;55.874;37.516;2023-04-16T07:27:59;6.68;;;2.90;;
74259;SDS011;62630;55.874;37.516;2023-04-16T07:30:25;11.95;;;2.63;;
74259;SDS011;62630;55.874;37.516;2023-04-16T07:32:56;10.70;;;2.60;;
74259;SDS011;62630;55.874;37.516;2023-04-16T07:35:22;10.10;;;2.92;;
74259;SDS011;62630;55.874;37.516;2023-04-16T07:37:47;4.82;;;2.13;;
74259;SDS011;62630;55.874;37.516;2023-04-16T07:40:13;11.45;;;2.40;;
74259;SDS011;62630;55.874;37.516;2023-04-16T07:42:38;6.80;;;2.78;;
74259;SDS011;62630;55.874;37.516;2023-04-16T07:45:04;13.70;;;2.80;;
74259;SDS011;62630;55.874;37.516;2023-04-16T07:47:30;6.55;;;2.80;;
74259;SDS011;62630;55.874;37.516;2023-04-16T07:49:56;9.65;;;3.22;;
74259;SDS011;62630;55.874;37.516;2023-04-16T07:52:21;5.43;;;2.60;;
74259;SDS011;62630;55.874;37.516;2023-04-16T07:54:47;11.63;;;3.10;;
74259;SDS011;62630;55.874;37.516;2023-04-16T07:57:12;10.60;;;3.38;;
74259;SDS011;62630;55.874;37.516;2023-04-16T07:59:38;10.07;;;3.28;;
74259;SDS011;62630;55.874;37.516;2023-04-16T08:02:04;10.50;;;3.58;;
74259;SDS011;62630;55.874;37.516;2023-04-16T08:04:30;8.25;;;3.50;;
74259;SDS011;62630;55.874;37.516;2023-04-16T08:06:55;9.60;;;3.38;;
74259;SDS011;62630;55.874;37.516;2023-04-16T08:09:22;8.25;;;2.70;;
74259;SDS011;62630;55.874;37.516;2023-04-16T08:11:51;10.38;;;3.40;;
74259;SDS011;62630;55.874;37.516;2023-04-16T08:14:16;7.68;;;3.08;;
74259;SDS011;62630;55.874;37.516;2023-04-16T08:16:42;8.70;;;3.33;;
74259;SDS011;62630;55.874;37.516;2023-04-16T08:19:07;4.40;;;2.72;;
74259;SDS011;62630;55.874;37.516;2023-04-16T08:21:33;8.00;;;2.88;;
74259;SDS011;62630;55.874;37.516;2023-04-16T08:23:58;8.00;;;3.25;;
74259;SDS011;62630;55.874;37.516;2023-04-16T08:26:24;9.40;;;3.45;;
74259;SDS011;62630;55.874;37.516;2023-04-16T08:28:50;8.30;;;3.50;;
74259;SDS011;62630;55.874;37.516;2023-04-16T08:31:15;7.53;;;3.10;;
74259;SDS011;62630;55.874;37.516;2023-04-16T08:33:41;8.18;;;3.13;;
74259;SDS011;62630;55.874;37.516;2023-04-16T08:36:07;10.07;;;3.20;;
74259;SDS011;62630;55.874;37.516;2023-04-16T08:38:36;12.90;;;3.97;;
74259;SDS011;62630;55.874;37.516;2023-04-16T08:41:02;15.50;;;2.83;;
74259;SDS011;62630;55.874;37.516;2023-04-16T08:43:32;6.65;;;2.92;;
74259;SDS011;62630;55.874;37.516;2023-04-16T08:46:00;10.57;;;3.55;;
74259;SDS011;62630;55.874;37.516;2023-04-16T08:48:30;8.35;;;2.80;;
74259;SDS011;62630;55.874;37.516;2023-04-16T08:50:59;12.55;;;3.38;;
74259;SDS011;62630;55.874;37.516;2023-04-16T08:53:42;6.15;;;2.65;;
74259;SDS011;62630;55.874;37.516;2023-04-16T08:56:12;11.48;;;2.95;;
74259;SDS011;62630;55.874;37.516;2023-04-16T08:58:39;11.48;;;2.88;;
74259;SDS011;62630;55.874;37.516;2023-04-16T09:01:05;9.13;;;2.85;;
74259;SDS011;62630;55.874;37.516;2023-04-16T09:03:33;8.18;;;2.63;;
74259;SDS011;62630;55.874;37.516;2023-04-16T09:05:59;7.57;;;2.90;;
74259;SDS011;62630;55.874;37.516;2023-04-16T09:08:28;18.48;;;3.70;;
74259;SDS011;62630;55.874;37.516;2023-04-16T09:10:54;15.15;;;3.42;;
74259;SDS011;62630;55.874;37.516;2023-04-16T09:13:21;9.90;;;3.03;;
74259;SDS011;62630;55.874;37.516;2023-04-16T09:15:50;16.23;;;3.28;;
74259;SDS011;62630;55.874;37.516;2023-04-16T09:20:47;8.00;;;2.15;;
74259;SDS011;62630;55.874;37.516;2023-04-16T09:23:15;7.00;;;2.13;;
74259;SDS011;62630;55.874;37.516;2023-04-16T09:25:41;4.90;;;2.22;;
74259;SDS011;62630;55.874;37.516;2023-04-16T09:28:07;7.95;;;3.35;;
74259;SDS011;62630;55.874;37.516;2023-04-16T09:30:33;5.78;;;2.70;;
74259;SDS011;62630;55.874;37.516;2023-04-16T09:33:11;9.85;;;2.53;;
74259;SDS011;62630;55.874;37.516;2023-04-16T09:35:48;8.30;;;3.40;;
74259;SDS011;62630;55.874;37.516;2023-04-16T09:38:15;7.95;;;3.05;;
74259;SDS011;62630;55.874;37.516;2023-04-16T09:40:40;8.48;;;2.58;;
74259;SDS011;62630;55.874;37.516;2023-04-16T09:43:10;8.02;;;2.88;;
74259;SDS011;62630;55.874;37.516;2023-04-16T09:45:54;9.55;;;2.88;;
74259;SDS011;62630;55.874;37.516;2023-04-16T09:48:27;8.57;;;2.70;;
74259;SDS011;62630;55.874;37.516;2023-04-16T09:50:54;10.38;;;2.28;;
74259;SDS011;62630;55.874;37.516;2023-04-16T09:53:24;5.72;;;2.42;;
74259;SDS011;62630;55.874;37.516;2023-04-16T09:55:50;3.97;;;2.30;;
74259;SDS011;62630;55.874;37.516;2023-04-16T09:58:17;4.32;;;2.22;;
74259;SDS011;62630;55.874;37.516;2023-04-16T10:00:44;6.55;;;2.28;;
74259;SDS011;62630;55.874;37.516;2023-04-16T10:03:10;5.47;;;2.10;;
74259;SDS011;62630;55.874;37.516;2023-04-16T10:05:35;4.47;;;2.15;;
74259;SDS011;62630;55.874;37.516;2023-04-16T10:08:01;8.55;;;2.20;;
74259;SDS011;62630;55.874;37.516;2023-04-16T10:10:27;8.77;;;2.20;;
74259;SDS011;62630;55.874;37.516;2023-04-16T10:12:54;5.75;;;2.13;;
74259;SDS011;62630;55.874;37.516;2023-04-16T10:15:20;9.48;;;2.60;;
74259;SDS011;62630;55.874;37.516;2023-04-16T10:17:46;5.57;;;2.10;;
74259;SDS011;62630;55.874;37.516;2023-04-16T10:20:13;10.07;;;3.10;;
74259;SDS011;62630;55.874;37.516;2023-04-16T10:22:40;7.22;;;2.85;;
74259;SDS011;62630;55.874;37.516;2023-04-16T10:25:06;7.40;;;2.80;;
74259;SDS011;62630;55.874;37.516;2023-04-16T10:27:32;9.65;;;2.55;;
74259;SDS011;62630;55.874;37.516;2023-04-16T10:29:59;8.05;;;2.70;;
74259;SDS011;62630;55.874;37.516;2023-04-16T10:32:25;11.25;;;2.58;;
74259;SDS011;62630;55.874;37.516;2023-04-16T10:34:53;4.97;;;2.75;;
74259;SDS011;62630;55.874;37.516;2023-04-16T10:39:53;7.40;;;3.20;;
74259;SDS011;62630;55.874;37.516;2023-04-16T10:42:18;6.95;;;3.08;;
74259;SDS011;62630;55.874;37.516;2023-04-16T10:44:44;6.53;;;2.70;;
74259;SDS011;62630;55.874;37.516;2023-04-16T10:47:10;7.25;;;2.28;;
74259;SDS011;62630;55.874;37.516;2023-04-16T10:49:37;2.70;;;2.15;;
74259;SDS011;62630;55.874;37.516;2023-04-16T10:52:12;11.30;;;3.65;;
74259;SDS011;62630;55.874;37.516;2023-04-16T10:54:41;4.88;;;2.30;;
74259;SDS011;62630;55.874;37.516;2023-04-16T10:57:07;5.28;;;2.40;;
74259;SDS011;62630;55.874;37.516;2023-04-16T10:59:42;7.15;;;2.65;;
74259;SDS011;62630;55.874;37.516;2023-04-16T11:02:15;7.90;;;2.58;;
74259;SDS011;62630;55.874;37.516;2023-04-16T11:14:50;6.97;;;2.92;;
74259;SDS011;62630;55.874;37.516;2023-04-16T11:17:17;11.65;;;3.10;;
74259;SDS011;62630;55.874;37.516;2023-04-16T11:19:44;12.88;;;2.72;;
74259;SDS011;62630;55.874;37.516;2023-04-16T11:22:14;7.95;;;2.45;;
74259;SDS011;62630;55.874;37.516;2023-04-16T11:24:45;6.60;;;2.20;;
74259;SDS011;62630;55.874;37.516;2023-04-16T11:27:11;5.45;;;2.40;;
74259;SDS011;62630;55.874;37.516;2023-04-16T11:29:40;14.60;;;3.30;;
74259;SDS011;62630;55.874;37.516;2023-04-16T11:32:06;4.40;;;2.30;;
74259;SDS011;62630;55.874;37.516;2023-04-16T11:34:31;9.45;;;2.50;;
74259;SDS011;62630;55.874;37.516;2023-04-16T11:36:57;9.85;;;3.30;;
74259;SDS011;62630;55.874;37.516;2023-04-16T11:39:23;15.80;;;3.92;;
74259;SDS011;62630;55.874;37.516;2023-04-16T11:41:49;8.00;;;3.30;;
74259;SDS011;62630;55.874;37.516;2023-04-16T11:44:25;9.05;;;2.40;;
74259;SDS011;62630;55.874;37.516;2023-04-16T11:46:52;5.97;;;2.40;;
74259;SDS011;62630;55.874;37.516;2023-04-16T11:49:28;7.32;;;2.60;;
74259;SDS011;62630;55.874;37.516;2023-04-16T11:51:54;4.20;;;2.55;;
74259;SDS011;62630;55.874;37.516;2023-04-16T11:54:20;6.20;;;2.55;;
74259;SDS011;62630;55.874;37.516;2023-04-16T11:56:47;8.43;;;3.20;;
74259;SDS011;62630;55.874;37.516;2023-04-16T11:59:18;17.83;;;2.90;;
74259;SDS011;62630;55.874;37.516;2023-04-16T12:01:50;7.40;;;2.72;;
74259;SDS011;62630;55.874;37.516;2023-04-16T12:04:18;11.23;;;3.00;;
74259;SDS011;62630;55.874;37.516;2023-04-16T12:09:36;7.35;;;2.95;;
74259;SDS011;62630;55.874;37.516;2023-04-16T12:12:03;8.98;;;2.70;;
74259;SDS011;62630;55.874;37.516;2023-04-16T12:14:29;7.38;;;2.45;;
74259;SDS011;62630;55.874;37.516;2023-04-16T12:16:56;9.25;;;3.38;;
74259;SDS011;62630;55.874;37.516;2023-04-16T12:19:56;5.43;;;2.67;;
74259;SDS011;62630;55.874;37.516;2023-04-16T12:22:27;5.68;;;2.60;;
74259;SDS011;62630;55.874;37.516;2023-04-16T12:25:06;8.43;;;3.03;;
74259;SDS011;62630;55.874;37.516;2023-04-16T12:27:41;10.55;;;2.58;;
74259;SDS011;62630;55.874;37.516;2023-04-16T12:30:12;3.63;;;2.05;;
74259;SDS011;62630;55.874;37.516;2023-04-16T12:32:42;10.43;;;2.45;;
74259;SDS011;62630;55.874;37.516;2023-04-16T12:35:09;4.10;;;2.20;;
74259;SDS011;62630;55.874;37.516;2023-04-16T12:37:36;4.18;;;2.55;;
74259;SDS011;62630;55.874;37.516;2023-04-16T12:40:02;4.97;;;2.47;;
74259;SDS011;62630;55.874;37.516;2023-04-16T12:42:31;11.30;;;3.13;;
74259;SDS011;62630;55.874;37.516;2023-04-16T12:45:04;6.47;;;3.03;;
74259;SDS011;62630;55.874;37.516;2023-04-16T12:47:31;4.97;;;2.53;;
74259;SDS011;62630;55.874;37.516;2023-04-16T12:49:57;8.90;;;3.20;;
74259;SDS011;62630;55.874;37.516;2023-04-16T12:52:24;12.98;;;3.00;;
74259;SDS011;62630;55.874;37.516;2023-04-16T12:54:50;9.57;;;3.00;;
74259;SDS011;62630;55.874;37.516;2023-04-16T12:57:15;4.35;;;2.50;;
74259;SDS011;62630;55.874;37.516;2023-04-16T12:59:41;7.13;;;2.80;;
74259;SDS011;62630;55.874;37.516;2023-04-16T13:02:06;10.52;;;2.72;;
74259;SDS011;62630;55.874;37.516;2023-04-16T13:04:32;10.38;;;3.08;;
74259;SDS011;62630;55.874;37.516;2023-04-16T13:06:58;8.95;;;2.97;;
74259;SDS011;62630;55.874;37.516;2023-04-16T13:09:23;7.88;;;2.72;;
74259;SDS011;62630;55.874;37.516;2023-04-16T13:11:50;13.63;;;3.47;;
74259;SDS011;62630;55.874;37.516;2023-04-16T13:14:15;7.85;;;2.75;;
74259;SDS011;62630;55.874;37.516;2023-04-16T13:16:41;10.27;;;2.70;;
74259;SDS011;62630;55.874;37.516;2023-04-16T13:19:06;10.68;;;3.05;;
74259;SDS011;62630;55.874;37.516;2023-04-16T13:21:32;11.38;;;2.92;;
74259;SDS011;62630;55.874;37.516;2023-04-16T13:23:58;3.83;;;2.20;;
74259;SDS011;62630;55.874;37.516;2023-04-16T13:26:24;6.45;;;2.65;;
74259;SDS011;62630;55.874;37.516;2023-04-16T13:28:50;4.75;;;2.15;;
74259;SDS011;62630;55.874;37.516;2023-04-16T13:31:15;7.63;;;2.38;;
74259;SDS011;62630;55.874;37.516;2023-04-16T13:33:44;9.73;;;3.05;;
74259;SDS011;62630;55.874;37.516;2023-04-16T13:36:10;6.55;;;2.10;;
74259;SDS011;62630;55.874;37.516;2023-04-16T13:38:36;8.20;;;2.42;;
74259;SDS011;62630;55.874;37.516;2023-04-16T13:41:02;6.65;;;2.50;;
74259;SDS011;62630;55.874;37.516;2023-04-16T13:43:28;3.83;;;2.17;;
74259;SDS011;62630;55.874;37.516;2023-04-16T13:45:54;12.05;;;2.70;;
74259;SDS011;62630;55.874;37.516;2023-04-16T13:48:20;4.18;;;2.25;;
74259;SDS011;62630;55.874;37.516;2023-04-16T13:50:45;2.95;;;1.92;;
74259;SDS011;62630;55.874;37.516;2023-04-16T13:53:11;6.10;;;2.72;;
74259;SDS011;62630;55.874;37.516;2023-04-16T13:55:36;4.63;;;2.20;;
74259;SDS011;62630;55.874;37.516;2023-04-16T13:58:02;7.20;;;3.17;;
74259;SDS011;62630;55.874;37.516;2023-04-16T14:00:27;9.25;;;3.65;;
74259;SDS011;62630;55.874;37.516;2023-04-16T14:02:53;11.88;;;2.67;;
74259;SDS011;62630;55.874;37.516;2023-04-16T14:05:18;8.20;;;2.30;;
74259;SDS011;62630;55.874;37.516;2023-04-16T14:07:44;5.47;;;2.20;;
74259;SDS011;62630;55.874;37.516;2023-04-16T14:10:10;8.95;;;3.28;;
74259;SDS011;62630;55.874;37.516;2023-04-16T14:12:36;6.90;;;2.35;;
74259;SDS011;62630;55.874;37.516;2023-04-16T14:15:03;7.50;;;2.40;;
74259;SDS011;62630;55.874;37.516;2023-04-16T14:17:30;6.90;;;3.00;;
74259;SDS011;62630;55.874;37.516;2023-04-16T14:19:56;10.88;;;2.38;;
74259;SDS011;62630;55.874;37.516;2023-04-16T14:22:21;5.50;;;2.53;;
74259;SDS011;62630;55.874;37.516;2023-04-16T14:24:47;7.32;;;2.65;;
74259;SDS011;62630;55.874;37.516;2023-04-16T14:27:12;8.15;;;2.30;;
74259;SDS011;62630;55.874;37.516;2023-04-16T14:29:38;5.70;;;2.53;;
74259;SDS011;62630;55.874;37.516;2023-04-16T14:32:03;9.13;;;2.58;;
74259;SDS011;62630;55.874;37.516;2023-04-16T14:34:30;8.15;;;2.58;;
74259;SDS011;62630;55.874;37.516;2023-04-16T14:36:56;5.53;;;2.38;;
74259;SDS011;62630;55.874;37.516;2023-04-16T14:39:21;5.15;;;2.42;;
74259;SDS011;62630;55.874;37.516;2023-04-16T14:41:48;4.40;;;2.15;;
74259;SDS011;62630;55.874;37.516;2023-04-16T14:44:13;5.13;;;2.60;;
74259;SDS011;62630;55.874;37.516;2023-04-16T14:46:41;3.83;;;2.42;;